Green Oak Township, Michigan
Current Conditions -  °F | °C
As of 5:15 AM on Friday 19 Dec 2014 (Local Time) from KOZW Reporting Station
Overcast Overcast  
Wind Chill: -4°   Ceiling: 800
Heat Index: -4°   Visibility: 10mi
Dew Point: -5°   Wind: 0mph
Humidity: 95%   Direction: NA
Pressure: 30.2"   Gusts: NA
Location:  42.5333°N, 83.7735°W
Report Text: KOZW 191015Z AUTO 00000KT 10SM OVC008 M04/M04 A3020 RMK AO2 T10381045
Loading
Personal Weather Stations






























Interactive Weather Map New forecast layout! Learn more

10-Day Weather Forecast

Advertisements
Track Severe Weather on mobile